sensor_id;sensor_type;location;lat;lon;timestamp;P1;durP1;ratioP1;P2;durP2;ratioP2
20042;SDS011;10182;52.896;6.496;2023-11-21T00:04:40;47.63;;;22.43;;
20042;SDS011;10182;52.896;6.496;2023-11-21T00:09:42;47.40;;;22.67;;
20042;SDS011;10182;52.896;6.496;2023-11-21T00:14:45;54.33;;;24.70;;
20042;SDS011;10182;52.896;6.496;2023-11-21T00:19:47;50.10;;;24.30;;
20042;SDS011;10182;52.896;6.496;2023-11-21T00:24:48;55.23;;;24.47;;
20042;SDS011;10182;52.896;6.496;2023-11-21T00:29:51;49.07;;;22.30;;
20042;SDS011;10182;52.896;6.496;2023-11-21T00:34:53;51.70;;;22.13;;
20042;SDS011;10182;52.896;6.496;2023-11-21T00:39:55;50.70;;;22.87;;
20042;SDS011;10182;52.896;6.496;2023-11-21T00:44:58;50.97;;;22.13;;
20042;SDS011;10182;52.896;6.496;2023-11-21T00:50:00;45.57;;;20.07;;
20042;SDS011;10182;52.896;6.496;2023-11-21T00:55:02;54.97;;;21.57;;
20042;SDS011;10182;52.896;6.496;2023-11-21T01:00:06;48.37;;;21.17;;
20042;SDS011;10182;52.896;6.496;2023-11-21T01:05:09;54.63;;;19.90;;
20042;SDS011;10182;52.896;6.496;2023-11-21T01:10:11;53.80;;;20.90;;
20042;SDS011;10182;52.896;6.496;2023-11-21T01:15:14;48.53;;;20.53;;
20042;SDS011;10182;52.896;6.496;2023-11-21T01:20:16;51.67;;;19.60;;
20042;SDS011;10182;52.896;6.496;2023-11-21T01:25:18;47.10;;;19.50;;
20042;SDS011;10182;52.896;6.496;2023-11-21T01:30:22;40.37;;;19.33;;
20042;SDS011;10182;52.896;6.496;2023-11-21T01:35:24;43.27;;;17.90;;
20042;SDS011;10182;52.896;6.496;2023-11-21T01:40:26;44.73;;;19.10;;
20042;SDS011;10182;52.896;6.496;2023-11-21T01:45:30;33.50;;;17.40;;
20042;SDS011;10182;52.896;6.496;2023-11-21T01:50:33;35.73;;;17.90;;
20042;SDS011;10182;52.896;6.496;2023-11-21T01:55:35;41.03;;;19.80;;
20042;SDS011;10182;52.896;6.496;2023-11-21T02:00:40;44.60;;;18.37;;
20042;SDS011;10182;52.896;6.496;2023-11-21T02:05:41;51.83;;;21.10;;
20042;SDS011;10182;52.896;6.496;2023-11-21T02:10:43;48.27;;;20.53;;
20042;SDS011;10182;52.896;6.496;2023-11-21T02:15:47;43.37;;;20.63;;
20042;SDS011;10182;52.896;6.496;2023-11-21T02:20:50;40.20;;;19.30;;
20042;SDS011;10182;52.896;6.496;2023-11-21T02:25:53;52.13;;;22.07;;
20042;SDS011;10182;52.896;6.496;2023-11-21T02:30:54;47.87;;;23.03;;
20042;SDS011;10182;52.896;6.496;2023-11-21T02:35:58;55.57;;;24.63;;
20042;SDS011;10182;52.896;6.496;2023-11-21T02:41:01;51.37;;;23.60;;
20042;SDS011;10182;52.896;6.496;2023-11-21T02:46:02;57.57;;;22.83;;
20042;SDS011;10182;52.896;6.496;2023-11-21T02:51:04;59.57;;;24.60;;
20042;SDS011;10182;52.896;6.496;2023-11-21T02:56:08;55.33;;;23.50;;
20042;SDS011;10182;52.896;6.496;2023-11-21T03:01:09;58.37;;;24.17;;
20042;SDS011;10182;52.896;6.496;2023-11-21T03:06:12;64.43;;;26.23;;
20042;SDS011;10182;52.896;6.496;2023-11-21T03:11:16;43.10;;;21.63;;
20042;SDS011;10182;52.896;6.496;2023-11-21T03:16:18;63.20;;;25.73;;
20042;SDS011;10182;52.896;6.496;2023-11-21T03:21:20;51.03;;;24.63;;
20042;SDS011;10182;52.896;6.496;2023-11-21T03:26:23;52.57;;;24.93;;
20042;SDS011;10182;52.896;6.496;2023-11-21T03:31:25;48.37;;;25.07;;
20042;SDS011;10182;52.896;6.496;2023-11-21T03:36:27;41.60;;;21.47;;
20042;SDS011;10182;52.896;6.496;2023-11-21T03:41:30;43.23;;;22.10;;
20042;SDS011;10182;52.896;6.496;2023-11-21T03:46:32;48.83;;;24.07;;
20042;SDS011;10182;52.896;6.496;2023-11-21T03:51:33;51.50;;;23.27;;
20042;SDS011;10182;52.896;6.496;2023-11-21T03:56:37;53.13;;;25.83;;
20042;SDS011;10182;52.896;6.496;2023-11-21T04:01:38;63.47;;;26.60;;
20042;SDS011;10182;52.896;6.496;2023-11-21T04:06:41;67.67;;;28.47;;
20042;SDS011;10182;52.896;6.496;2023-11-21T04:11:44;60.37;;;29.37;;
20042;SDS011;10182;52.896;6.496;2023-11-21T04:16:46;66.37;;;29.00;;
20042;SDS011;10182;52.896;6.496;2023-11-21T04:21:47;54.87;;;27.00;;
20042;SDS011;10182;52.896;6.496;2023-11-21T04:26:51;63.47;;;30.33;;
20042;SDS011;10182;52.896;6.496;2023-11-21T04:31:53;66.63;;;30.43;;
20042;SDS011;10182;52.896;6.496;2023-11-21T04:36:55;50.73;;;26.67;;
20042;SDS011;10182;52.896;6.496;2023-11-21T04:41:58;50.90;;;26.00;;
20042;SDS011;10182;52.896;6.496;2023-11-21T04:46:59;62.77;;;29.13;;
20042;SDS011;10182;52.896;6.496;2023-11-21T04:52:05;54.07;;;26.73;;
20042;SDS011;10182;52.896;6.496;2023-11-21T04:57:10;49.57;;;27.60;;
20042;SDS011;10182;52.896;6.496;2023-11-21T05:02:12;52.97;;;26.10;;
20042;SDS011;10182;52.896;6.496;2023-11-21T05:07:14;45.13;;;25.73;;
20042;SDS011;10182;52.896;6.496;2023-11-21T05:12:17;51.23;;;26.77;;
20042;SDS011;10182;52.896;6.496;2023-11-21T05:17:19;47.47;;;27.00;;
20042;SDS011;10182;52.896;6.496;2023-11-21T05:22:21;46.73;;;25.70;;
20042;SDS011;10182;52.896;6.496;2023-11-21T05:27:24;44.13;;;25.07;;
20042;SDS011;10182;52.896;6.496;2023-11-21T05:32:25;39.20;;;24.03;;
20042;SDS011;10182;52.896;6.496;2023-11-21T05:37:27;41.97;;;25.40;;
20042;SDS011;10182;52.896;6.496;2023-11-21T05:42:31;45.27;;;26.83;;
20042;SDS011;10182;52.896;6.496;2023-11-21T05:47:33;51.80;;;27.80;;
20042;SDS011;10182;52.896;6.496;2023-11-21T05:52:36;52.93;;;28.20;;
20042;SDS011;10182;52.896;6.496;2023-11-21T05:57:39;52.37;;;29.77;;
20042;SDS011;10182;52.896;6.496;2023-11-21T06:02:42;57.30;;;28.77;;
20042;SDS011;10182;52.896;6.496;2023-11-21T06:07:43;54.33;;;28.87;;
20042;SDS011;10182;52.896;6.496;2023-11-21T06:12:47;55.93;;;28.60;;
20042;SDS011;10182;52.896;6.496;2023-11-21T06:17:48;45.73;;;25.47;;
20042;SDS011;10182;52.896;6.496;2023-11-21T06:22:52;44.13;;;25.40;;
20042;SDS011;10182;52.896;6.496;2023-11-21T06:27:56;44.63;;;24.33;;
20042;SDS011;10182;52.896;6.496;2023-11-21T06:32:58;44.80;;;23.27;;
20042;SDS011;10182;52.896;6.496;2023-11-21T06:37:59;41.20;;;20.97;;
20042;SDS011;10182;52.896;6.496;2023-11-21T06:43:03;44.00;;;22.63;;
20042;SDS011;10182;52.896;6.496;2023-11-21T06:48:07;47.90;;;23.60;;
20042;SDS011;10182;52.896;6.496;2023-11-21T06:53:08;47.77;;;21.83;;
20042;SDS011;10182;52.896;6.496;2023-11-21T06:58:11;45.30;;;23.00;;
20042;SDS011;10182;52.896;6.496;2023-11-21T07:03:14;41.67;;;21.90;;
20042;SDS011;10182;52.896;6.496;2023-11-21T07:08:16;42.90;;;22.00;;
20042;SDS011;10182;52.896;6.496;2023-11-21T07:13:19;37.53;;;18.07;;
20042;SDS011;10182;52.896;6.496;2023-11-21T07:18:21;38.53;;;18.73;;
20042;SDS011;10182;52.896;6.496;2023-11-21T07:23:23;34.23;;;17.60;;
20042;SDS011;10182;52.896;6.496;2023-11-21T07:28:26;31.07;;;16.80;;
20042;SDS011;10182;52.896;6.496;2023-11-21T07:33:28;31.10;;;17.17;;
20042;SDS011;10182;52.896;6.496;2023-11-21T07:38:29;29.63;;;17.23;;
20042;SDS011;10182;52.896;6.496;2023-11-21T07:43:32;30.83;;;18.07;;
20042;SDS011;10182;52.896;6.496;2023-11-21T07:48:35;32.37;;;17.50;;
20042;SDS011;10182;52.896;6.496;2023-11-21T07:53:36;30.40;;;18.07;;
20042;SDS011;10182;52.896;6.496;2023-11-21T07:58:40;26.43;;;15.47;;
20042;SDS011;10182;52.896;6.496;2023-11-21T08:03:41;30.10;;;18.30;;
20042;SDS011;10182;52.896;6.496;2023-11-21T08:08:44;32.60;;;17.93;;
20042;SDS011;10182;52.896;6.496;2023-11-21T08:13:47;29.37;;;18.23;;
20042;SDS011;10182;52.896;6.496;2023-11-21T08:18:49;26.73;;;15.23;;
20042;SDS011;10182;52.896;6.496;2023-11-21T08:23:51;21.87;;;14.37;;
20042;SDS011;10182;52.896;6.496;2023-11-21T08:28:55;31.17;;;15.90;;
20042;SDS011;10182;52.896;6.496;2023-11-21T08:33:57;32.67;;;18.40;;
20042;SDS011;10182;52.896;6.496;2023-11-21T08:39:03;38.03;;;20.47;;
20042;SDS011;10182;52.896;6.496;2023-11-21T08:44:07;42.17;;;18.60;;
20042;SDS011;10182;52.896;6.496;2023-11-21T08:49:08;33.53;;;19.17;;
20042;SDS011;10182;52.896;6.496;2023-11-21T08:54:10;29.77;;;17.77;;
20042;SDS011;10182;52.896;6.496;2023-11-21T08:59:13;29.63;;;18.57;;
20042;SDS011;10182;52.896;6.496;2023-11-21T09:04:15;33.20;;;19.37;;
20042;SDS011;10182;52.896;6.496;2023-11-21T09:09:17;39.77;;;23.10;;
20042;SDS011;10182;52.896;6.496;2023-11-21T09:14:21;45.50;;;26.37;;
20042;SDS011;10182;52.896;6.496;2023-11-21T09:19:23;40.20;;;25.90;;
20042;SDS011;10182;52.896;6.496;2023-11-21T09:24:25;37.50;;;25.37;;
20042;SDS011;10182;52.896;6.496;2023-11-21T09:29:28;46.90;;;29.53;;
20042;SDS011;10182;52.896;6.496;2023-11-21T09:34:30;41.27;;;26.67;;
20042;SDS011;10182;52.896;6.496;2023-11-21T09:39:32;36.27;;;24.50;;
20042;SDS011;10182;52.896;6.496;2023-11-21T09:44:38;37.60;;;24.73;;
20042;SDS011;10182;52.896;6.496;2023-11-21T09:49:48;39.70;;;26.13;;
20042;SDS011;10182;52.896;6.496;2023-11-21T09:54:50;35.60;;;24.57;;
20042;SDS011;10182;52.896;6.496;2023-11-21T09:59:54;33.10;;;24.87;;
20042;SDS011;10182;52.896;6.496;2023-11-21T10:04:59;36.43;;;25.10;;
20042;SDS011;10182;52.896;6.496;2023-11-21T10:10:01;32.53;;;24.10;;
20042;SDS011;10182;52.896;6.496;2023-11-21T10:15:06;35.37;;;24.97;;
20042;SDS011;10182;52.896;6.496;2023-11-21T10:20:11;33.20;;;23.73;;
20042;SDS011;10182;52.896;6.496;2023-11-21T10:25:13;25.77;;;18.97;;
20042;SDS011;10182;52.896;6.496;2023-11-21T10:30:16;25.70;;;19.27;;
20042;SDS011;10182;52.896;6.496;2023-11-21T10:35:18;25.40;;;19.43;;
20042;SDS011;10182;52.896;6.496;2023-11-21T10:40:20;22.93;;;17.43;;
20042;SDS011;10182;52.896;6.496;2023-11-21T10:45:23;24.17;;;18.23;;
20042;SDS011;10182;52.896;6.496;2023-11-21T10:50:26;27.63;;;19.23;;
20042;SDS011;10182;52.896;6.496;2023-11-21T10:55:28;22.80;;;18.67;;
20042;SDS011;10182;52.896;6.496;2023-11-21T11:00:31;21.27;;;16.93;;
20042;SDS011;10182;52.896;6.496;2023-11-21T11:05:34;19.87;;;16.60;;
20042;SDS011;10182;52.896;6.496;2023-11-21T11:10:36;16.67;;;14.07;;
20042;SDS011;10182;52.896;6.496;2023-11-21T11:15:40;14.70;;;12.30;;
20042;SDS011;10182;52.896;6.496;2023-11-21T11:20:43;14.37;;;12.13;;
20042;SDS011;10182;52.896;6.496;2023-11-21T11:25:52;12.00;;;10.67;;
20042;SDS011;10182;52.896;6.496;2023-11-21T11:31:09;13.10;;;10.80;;
20042;SDS011;10182;52.896;6.496;2023-11-21T11:36:25;12.80;;;10.83;;
20042;SDS011;10182;52.896;6.496;2023-11-21T11:41:32;12.33;;;9.07;;
20042;SDS011;10182;52.896;6.496;2023-11-21T11:46:44;10.43;;;9.23;;
20042;SDS011;10182;52.896;6.496;2023-11-21T11:51:46;12.80;;;9.40;;
20042;SDS011;10182;52.896;6.496;2023-11-21T11:56:48;11.03;;;9.60;;
20042;SDS011;10182;52.896;6.496;2023-11-21T12:01:51;11.43;;;9.40;;
20042;SDS011;10182;52.896;6.496;2023-11-21T12:06:52;12.80;;;10.47;;
20042;SDS011;10182;52.896;6.496;2023-11-21T12:11:55;11.00;;;9.80;;
20042;SDS011;10182;52.896;6.496;2023-11-21T12:16:58;10.70;;;9.17;;
20042;SDS011;10182;52.896;6.496;2023-11-21T12:22:02;10.27;;;8.33;;
20042;SDS011;10182;52.896;6.496;2023-11-21T12:27:04;9.77;;;7.93;;
20042;SDS011;10182;52.896;6.496;2023-11-21T12:32:07;9.60;;;8.57;;
20042;SDS011;10182;52.896;6.496;2023-11-21T12:37:10;11.10;;;8.60;;
20042;SDS011;10182;52.896;6.496;2023-11-21T12:42:12;7.97;;;7.17;;
20042;SDS011;10182;52.896;6.496;2023-11-21T12:47:17;8.63;;;7.73;;
20042;SDS011;10182;52.896;6.496;2023-11-21T12:52:21;9.40;;;7.33;;
20042;SDS011;10182;52.896;6.496;2023-11-21T12:57:25;8.20;;;7.40;;
20042;SDS011;10182;52.896;6.496;2023-11-21T13:02:29;8.17;;;7.13;;
20042;SDS011;10182;52.896;6.496;2023-11-21T13:07:31;7.97;;;6.83;;
20042;SDS011;10182;52.896;6.496;2023-11-21T13:12:46;9.73;;;7.47;;
20042;SDS011;10182;52.896;6.496;2023-11-21T13:17:50;11.00;;;8.00;;
20042;SDS011;10182;52.896;6.496;2023-11-21T13:22:54;15.53;;;8.13;;
20042;SDS011;10182;52.896;6.496;2023-11-21T13:27:57;9.23;;;7.83;;
20042;SDS011;10182;52.896;6.496;2023-11-21T13:33:02;9.37;;;8.03;;
20042;SDS011;10182;52.896;6.496;2023-11-21T13:38:07;11.53;;;7.37;;
20042;SDS011;10182;52.896;6.496;2023-11-21T13:43:10;7.97;;;6.93;;
20042;SDS011;10182;52.896;6.496;2023-11-21T13:48:14;8.63;;;7.47;;
20042;SDS011;10182;52.896;6.496;2023-11-21T13:53:19;9.90;;;7.63;;
20042;SDS011;10182;52.896;6.496;2023-11-21T13:58:22;14.23;;;8.33;;
20042;SDS011;10182;52.896;6.496;2023-11-21T14:03:36;9.10;;;7.40;;
20042;SDS011;10182;52.896;6.496;2023-11-21T14:08:50;8.13;;;7.20;;
20042;SDS011;10182;52.896;6.496;2023-11-21T14:13:53;8.87;;;6.77;;
20042;SDS011;10182;52.896;6.496;2023-11-21T14:18:56;11.03;;;7.30;;
20042;SDS011;10182;52.896;6.496;2023-11-21T14:24:04;8.03;;;7.23;;
20042;SDS011;10182;52.896;6.496;2023-11-21T14:29:09;8.03;;;6.83;;
20042;SDS011;10182;52.896;6.496;2023-11-21T14:34:15;7.87;;;6.20;;
20042;SDS011;10182;52.896;6.496;2023-11-21T14:39:18;7.67;;;6.37;;
20042;SDS011;10182;52.896;6.496;2023-11-21T14:44:23;10.53;;;6.20;;
20042;SDS011;10182;52.896;6.496;2023-11-21T14:49:29;9.43;;;6.23;;
20042;SDS011;10182;52.896;6.496;2023-11-21T14:54:40;8.40;;;6.80;;
20042;SDS011;10182;52.896;6.496;2023-11-21T14:59:46;8.13;;;6.43;;
20042;SDS011;10182;52.896;6.496;2023-11-21T15:04:53;8.57;;;6.63;;
20042;SDS011;10182;52.896;6.496;2023-11-21T15:10:01;9.13;;;6.80;;
20042;SDS011;10182;52.896;6.496;2023-11-21T15:15:04;9.17;;;6.40;;
20042;SDS011;10182;52.896;6.496;2023-11-21T15:20:11;16.27;;;12.83;;
20042;SDS011;10182;52.896;6.496;2023-11-21T15:25:19;8.50;;;6.70;;
20042;SDS011;10182;52.896;6.496;2023-11-21T15:30:20;9.97;;;7.07;;
20042;SDS011;10182;52.896;6.496;2023-11-21T15:35:26;9.17;;;7.77;;
20042;SDS011;10182;52.896;6.496;2023-11-21T15:40:28;11.83;;;8.37;;
20042;SDS011;10182;52.896;6.496;2023-11-21T15:45:31;8.27;;;7.17;;
20042;SDS011;10182;52.896;6.496;2023-11-21T15:50:35;10.33;;;6.97;;
20042;SDS011;10182;52.896;6.496;2023-11-21T15:55:37;9.80;;;7.27;;
20042;SDS011;10182;52.896;6.496;2023-11-21T16:00:42;7.10;;;6.17;;
20042;SDS011;10182;52.896;6.496;2023-11-21T16:05:45;9.63;;;6.70;;
20042;SDS011;10182;52.896;6.496;2023-11-21T16:10:47;8.20;;;6.53;;
20042;SDS011;10182;52.896;6.496;2023-11-21T16:15:49;7.23;;;6.00;;
20042;SDS011;10182;52.896;6.496;2023-11-21T16:20:52;10.07;;;6.10;;
20042;SDS011;10182;52.896;6.496;2023-11-21T16:25:53;10.10;;;7.13;;
20042;SDS011;10182;52.896;6.496;2023-11-21T16:30:56;9.90;;;6.77;;
20042;SDS011;10182;52.896;6.496;2023-11-21T16:35:59;8.33;;;6.07;;
20042;SDS011;10182;52.896;6.496;2023-11-21T16:41:01;9.37;;;6.73;;
20042;SDS011;10182;52.896;6.496;2023-11-21T16:46:03;8.10;;;6.13;;
20042;SDS011;10182;52.896;6.496;2023-11-21T16:51:06;11.63;;;8.30;;
20042;SDS011;10182;52.896;6.496;2023-11-21T16:56:11;7.80;;;6.80;;
20042;SDS011;10182;52.896;6.496;2023-11-21T17:01:13;12.13;;;8.20;;
20042;SDS011;10182;52.896;6.496;2023-11-21T17:06:16;9.50;;;7.63;;
20042;SDS011;10182;52.896;6.496;2023-11-21T17:11:18;11.37;;;10.20;;
20042;SDS011;10182;52.896;6.496;2023-11-21T17:16:20;8.33;;;7.53;;
20042;SDS011;10182;52.896;6.496;2023-11-21T17:21:24;9.43;;;7.80;;
20042;SDS011;10182;52.896;6.496;2023-11-21T17:26:27;13.77;;;8.07;;
20042;SDS011;10182;52.896;6.496;2023-11-21T17:31:28;9.93;;;7.97;;
20042;SDS011;10182;52.896;6.496;2023-11-21T17:36:31;10.23;;;9.03;;
20042;SDS011;10182;52.896;6.496;2023-11-21T17:41:33;13.60;;;10.47;;
20042;SDS011;10182;52.896;6.496;2023-11-21T17:46:35;9.37;;;8.37;;
20042;SDS011;10182;52.896;6.496;2023-11-21T17:51:39;12.50;;;9.00;;
20042;SDS011;10182;52.896;6.496;2023-11-21T17:56:40;10.83;;;8.40;;
20042;SDS011;10182;52.896;6.496;2023-11-21T18:01:42;9.90;;;8.10;;
20042;SDS011;10182;52.896;6.496;2023-11-21T18:06:45;13.53;;;12.23;;
20042;SDS011;10182;52.896;6.496;2023-11-21T18:11:47;10.37;;;8.03;;
20042;SDS011;10182;52.896;6.496;2023-11-21T18:16:49;10.73;;;8.97;;
20042;SDS011;10182;52.896;6.496;2023-11-21T18:21:53;11.40;;;8.40;;
20042;SDS011;10182;52.896;6.496;2023-11-21T18:26:54;15.40;;;11.53;;
20042;SDS011;10182;52.896;6.496;2023-11-21T18:31:56;15.43;;;9.00;;
20042;SDS011;10182;52.896;6.496;2023-11-21T18:36:59;14.20;;;10.33;;
20042;SDS011;10182;52.896;6.496;2023-11-21T18:42:01;9.60;;;8.40;;
20042;SDS011;10182;52.896;6.496;2023-11-21T18:47:04;13.60;;;9.83;;
20042;SDS011;10182;52.896;6.496;2023-11-21T18:52:07;12.57;;;9.57;;
20042;SDS011;10182;52.896;6.496;2023-11-21T18:57:11;12.33;;;9.23;;
20042;SDS011;10182;52.896;6.496;2023-11-21T19:02:12;13.00;;;9.63;;
20042;SDS011;10182;52.896;6.496;2023-11-21T19:07:15;16.00;;;10.37;;
20042;SDS011;10182;52.896;6.496;2023-11-21T19:12:19;12.17;;;9.80;;
20042;SDS011;10182;52.896;6.496;2023-11-21T19:17:20;15.87;;;13.07;;
20042;SDS011;10182;52.896;6.496;2023-11-21T19:22:23;15.30;;;11.30;;
20042;SDS011;10182;52.896;6.496;2023-11-21T19:27:25;15.00;;;11.30;;
20042;SDS011;10182;52.896;6.496;2023-11-21T19:32:27;15.20;;;12.27;;
20042;SDS011;10182;52.896;6.496;2023-11-21T19:37:31;17.80;;;12.10;;
20042;SDS011;10182;52.896;6.496;2023-11-21T19:42:33;15.80;;;13.33;;
20042;SDS011;10182;52.896;6.496;2023-11-21T19:47:36;18.87;;;14.30;;
20042;SDS011;10182;52.896;6.496;2023-11-21T19:52:40;17.33;;;12.87;;
20042;SDS011;10182;52.896;6.496;2023-11-21T19:57:41;18.37;;;14.67;;
20042;SDS011;10182;52.896;6.496;2023-11-21T20:02:44;19.07;;;14.97;;
20042;SDS011;10182;52.896;6.496;2023-11-21T20:07:47;20.40;;;13.80;;
20042;SDS011;10182;52.896;6.496;2023-11-21T20:12:48;15.03;;;13.43;;
20042;SDS011;10182;52.896;6.496;2023-11-21T20:17:52;21.50;;;13.30;;
20042;SDS011;10182;52.896;6.496;2023-11-21T20:22:56;16.13;;;13.37;;
20042;SDS011;10182;52.896;6.496;2023-11-21T20:27:58;16.87;;;13.40;;
20042;SDS011;10182;52.896;6.496;2023-11-21T20:33:00;17.20;;;13.73;;
20042;SDS011;10182;52.896;6.496;2023-11-21T20:38:04;15.20;;;13.60;;
20042;SDS011;10182;52.896;6.496;2023-11-21T20:43:08;19.67;;;13.47;;
20042;SDS011;10182;52.896;6.496;2023-11-21T20:48:09;15.17;;;12.33;;
20042;SDS011;10182;52.896;6.496;2023-11-21T20:53:13;17.03;;;13.33;;
20042;SDS011;10182;52.896;6.496;2023-11-21T20:58:14;17.37;;;12.43;;
20042;SDS011;10182;52.896;6.496;2023-11-21T21:03:16;16.73;;;12.10;;
20042;SDS011;10182;52.896;6.496;2023-11-21T21:08:19;13.10;;;10.93;;
20042;SDS011;10182;52.896;6.496;2023-11-21T21:13:21;15.23;;;12.07;;
20042;SDS011;10182;52.896;6.496;2023-11-21T21:18:24;16.13;;;12.40;;
20042;SDS011;10182;52.896;6.496;2023-11-21T21:23:28;13.13;;;10.70;;
20042;SDS011;10182;52.896;6.496;2023-11-21T21:28:30;14.60;;;11.53;;
20042;SDS011;10182;52.896;6.496;2023-11-21T21:33:31;12.53;;;10.87;;
20042;SDS011;10182;52.896;6.496;2023-11-21T21:38:35;15.00;;;10.83;;
20042;SDS011;10182;52.896;6.496;2023-11-21T21:43:36;13.97;;;10.53;;
20042;SDS011;10182;52.896;6.496;2023-11-21T21:48:39;14.30;;;10.83;;
20042;SDS011;10182;52.896;6.496;2023-11-21T21:53:42;15.23;;;11.77;;
20042;SDS011;10182;52.896;6.496;2023-11-21T21:58:44;13.90;;;10.57;;
20042;SDS011;10182;52.896;6.496;2023-11-21T22:03:46;18.40;;;11.53;;
20042;SDS011;10182;52.896;6.496;2023-11-21T22:08:49;13.07;;;9.43;;
20042;SDS011;10182;52.896;6.496;2023-11-21T22:13:51;13.37;;;11.00;;
20042;SDS011;10182;52.896;6.496;2023-11-21T22:18:53;13.37;;;10.90;;
20042;SDS011;10182;52.896;6.496;2023-11-21T22:23:57;17.00;;;11.50;;
20042;SDS011;10182;52.896;6.496;2023-11-21T22:28:59;17.10;;;11.83;;
20042;SDS011;10182;52.896;6.496;2023-11-21T22:34:00;14.90;;;11.67;;
20042;SDS011;10182;52.896;6.496;2023-11-21T22:39:03;15.30;;;13.17;;
20042;SDS011;10182;52.896;6.496;2023-11-21T22:44:06;15.80;;;12.97;;
20042;SDS011;10182;52.896;6.496;2023-11-21T22:55:07;17.93;;;13.20;;
20042;SDS011;10182;52.896;6.496;2023-11-21T23:00:09;14.53;;;11.43;;
20042;SDS011;10182;52.896;6.496;2023-11-21T23:05:14;15.97;;;12.10;;
20042;SDS011;10182;52.896;6.496;2023-11-21T23:10:17;16.33;;;12.37;;
20042;SDS011;10182;52.896;6.496;2023-11-21T23:15:21;14.30;;;11.47;;
20042;SDS011;10182;52.896;6.496;2023-11-21T23:20:24;14.80;;;11.23;;
20042;SDS011;10182;52.896;6.496;2023-11-21T23:30:48;16.17;;;12.30;;
20042;SDS011;10182;52.896;6.496;2023-11-21T23:35:51;11.63;;;9.80;;
20042;SDS011;10182;52.896;6.496;2023-11-21T23:40:54;14.53;;;11.30;;
20042;SDS011;10182;52.896;6.496;2023-11-21T23:45:57;15.10;;;11.43;;
20042;SDS011;10182;52.896;6.496;2023-11-21T23:50:58;16.50;;;11.93;;
20042;SDS011;10182;52.896;6.496;2023-11-21T23:56:01;15.87;;;12.80;;
